Terminal Aerodrome Forecast
Issued by NWS Wakefield, VA

Home | Current Version | Previous Version | Text Only | Print | Product List | Glossary On
Versions: 1 2 3 4 5 6 7 8 9 10 11 12 13 14 15 16 17 18 19 20 21 22
000
FTUS41 KAKQ 020535
TAFSBY
TAF
KSBY 020535Z 0206/0306 00000KT 3SM BR OVC002
      TEMPO 0207/0209 1SM RA BR
     FM021400 15005KT 3SM BR OVC005
     FM021800 22008KT 5SM BR OVC015
     FM022100 22009KT P6SM SCT050 BKN200=

USA.gov is the U.S. government's official web portal to all federal, state and local government web resources and services.